EWG17AV EDDL-EGCC
Flight info
| Callsign | EWG17AV |
|---|---|
| Flight time | 1h 5m |
| Altitude | 36000 |
| Route | SONEB6Z SONEB P64 TENLI L602 SPY DCT RAVLO Y70 OTBED |
| Aircraft | A321/M-SDE3FGHIRWY/LB1 |
Departure
| Time | 2026-05-07 12:30 |
|---|---|
| Airport | Düsseldorf Airport (EDDL) |
Arrival
| Time | 2026-05-07 13:35 |
|---|---|
| Airport | Manchester Airport (EGCC) |
| Time | Latitude | Longitude | Altitude | Speed | Heading |
|---|---|---|---|---|---|
| 2026-05-07 12:07 | 51.28390 | 6.77187 | 129 ft | 0 kts | 142° |
| 2026-05-07 12:18 | 51.28396 | 6.77180 | 125 ft | 4 kts | 142° |
| 2026-05-07 12:18 | 51.28413 | 6.77158 | 123 ft | 4 kts | 147° |
| 2026-05-07 12:18 | 51.28435 | 6.77146 | 124 ft | 4 kts | 196° |
| 2026-05-07 12:18 | 51.28456 | 6.77167 | 126 ft | 4 kts | 231° |
| 2026-05-07 12:19 | 51.28464 | 6.77184 | 123 ft | 0 kts | 233° |
| 2026-05-07 12:23 | 51.28462 | 6.77179 | 125 ft | 3 kts | 232° |
| 2026-05-07 12:23 | 51.28436 | 6.77125 | 124 ft | 9 kts | 232° |
| 2026-05-07 12:23 | 51.28385 | 6.77020 | 126 ft | 14 kts | 232° |
| 2026-05-07 12:23 | 51.28360 | 6.76887 | 126 ft | 13 kts | 306° |
| 2026-05-07 12:24 | 51.28429 | 6.76795 | 124 ft | 14 kts | 329° |
| 2026-05-07 12:24 | 51.28444 | 6.76681 | 121 ft | 13 kts | 232° |
| 2026-05-07 12:24 | 51.28386 | 6.76559 | 124 ft | 15 kts | 232° |
| 2026-05-07 12:24 | 51.28335 | 6.76451 | 121 ft | 11 kts | 233° |
| 2026-05-07 12:25 | 51.28287 | 6.76350 | 125 ft | 12 kts | 233° |
| 2026-05-07 12:25 | 51.28233 | 6.76238 | 124 ft | 14 kts | 233° |
| 2026-05-07 12:25 | 51.28172 | 6.76112 | 129 ft | 16 kts | 233° |
| 2026-05-07 12:25 | 51.28097 | 6.75954 | 128 ft | 19 kts | 231° |
| 2026-05-07 12:26 | 51.28015 | 6.75783 | 127 ft | 20 kts | 232° |
| 2026-05-07 12:26 | 51.27944 | 6.75606 | 128 ft | 12 kts | 261° |
| 2026-05-07 12:26 | 51.27983 | 6.75535 | 125 ft | 0 kts | 333° |
| 2026-05-07 12:27 | 51.28007 | 6.75518 | 126 ft | 9 kts | 336° |
| 2026-05-07 12:27 | 51.28094 | 6.75493 | 127 ft | 11 kts | 11° |
| 2026-05-07 12:28 | 51.28119 | 6.75532 | 124 ft | 0 kts | 52° |
| 2026-05-07 12:28 | 51.28119 | 6.75531 | 124 ft | 0 kts | 52° |
| 2026-05-07 12:29 | 51.28121 | 6.75536 | 126 ft | 4 kts | 52° |
| 2026-05-07 12:29 | 51.28188 | 6.75677 | 126 ft | 50 kts | 52° |
| 2026-05-07 12:29 | 51.28552 | 6.76442 | 127 ft | 121 kts | 52° |
| 2026-05-07 12:29 | 51.29175 | 6.77733 | 262 ft | 161 kts | 50° |
| 2026-05-07 12:30 | 51.29855 | 6.79103 | 1167 ft | 155 kts | 49° |
| 2026-05-07 12:30 | 51.30546 | 6.80455 | 1833 ft | 162 kts | 47° |
| 2026-05-07 12:30 | 51.31291 | 6.81851 | 2392 ft | 168 kts | 47° |
| 2026-05-07 12:30 | 51.32059 | 6.83326 | 2894 ft | 180 kts | 50° |
| 2026-05-07 12:31 | 51.32844 | 6.85043 | 3164 ft | 202 kts | 52° |
| 2026-05-07 12:31 | 51.33704 | 6.86984 | 3400 ft | 226 kts | 53° |
| 2026-05-07 12:31 | 51.34680 | 6.89128 | 3697 ft | 249 kts | 45° |
| 2026-05-07 12:31 | 51.36141 | 6.90628 | 4396 ft | 254 kts | 16° |
| 2026-05-07 12:32 | 51.37887 | 6.91169 | 5214 ft | 257 kts | 8° |
| 2026-05-07 12:32 | 51.39666 | 6.91628 | 6036 ft | 261 kts | 9° |
| 2026-05-07 12:32 | 51.41468 | 6.92112 | 6792 ft | 265 kts | 9° |
| 2026-05-07 12:32 | 51.42470 | 6.92385 | 7196 ft | 267 kts | 9° |
| 2026-05-07 12:33 | 51.46227 | 6.93412 | 8661 ft | 277 kts | 9° |
| 2026-05-07 12:33 | 51.48145 | 6.93934 | 9380 ft | 282 kts | 9° |
| 2026-05-07 12:33 | 51.50113 | 6.94176 | 10057 ft | 286 kts | 356° |
| 2026-05-07 12:34 | 51.52131 | 6.93727 | 10413 ft | 303 kts | 349° |
| 2026-05-07 12:34 | 51.54284 | 6.93125 | 10558 ft | 325 kts | 349° |
| 2026-05-07 12:34 | 51.56558 | 6.92474 | 10951 ft | 337 kts | 349° |
| 2026-05-07 12:34 | 51.58877 | 6.91809 | 11563 ft | 341 kts | 349° |
| 2026-05-07 12:35 | 51.61225 | 6.91138 | 12221 ft | 344 kts | 349° |
| 2026-05-07 12:35 | 51.63594 | 6.90467 | 12887 ft | 347 kts | 349° |
| 2026-05-07 12:35 | 51.65981 | 6.89797 | 13543 ft | 350 kts | 349° |
| 2026-05-07 12:35 | 51.68393 | 6.89119 | 14157 ft | 353 kts | 349° |
| 2026-05-07 12:36 | 51.70827 | 6.88435 | 14726 ft | 357 kts | 348° |
| 2026-05-07 12:36 | 51.73268 | 6.87642 | 15288 ft | 360 kts | 346° |
| 2026-05-07 12:36 | 51.75718 | 6.86732 | 15862 ft | 363 kts | 345° |
| 2026-05-07 12:36 | 51.78213 | 6.85750 | 16445 ft | 366 kts | 345° |
| 2026-05-07 12:37 | 51.80663 | 6.84771 | 17011 ft | 369 kts | 345° |
| 2026-05-07 12:37 | 51.83167 | 6.83777 | 17578 ft | 372 kts | 345° |
| 2026-05-07 12:37 | 51.85691 | 6.82792 | 18140 ft | 375 kts | 345° |
| 2026-05-07 12:37 | 51.88240 | 6.81811 | 18646 ft | 378 kts | 345° |
| 2026-05-07 12:38 | 51.90811 | 6.80831 | 19120 ft | 381 kts | 345° |
| 2026-05-07 12:38 | 51.93405 | 6.79845 | 19595 ft | 384 kts | 345° |
| 2026-05-07 12:38 | 51.96016 | 6.78853 | 20068 ft | 387 kts | 345° |
| 2026-05-07 12:38 | 51.98626 | 6.77723 | 20524 ft | 389 kts | 339° |
| 2026-05-07 12:39 | 52.01084 | 6.75868 | 20969 ft | 390 kts | 328° |
| 2026-05-07 12:39 | 52.03282 | 6.73278 | 21413 ft | 392 kts | 317° |
| 2026-05-07 12:39 | 52.05138 | 6.70041 | 21853 ft | 393 kts | 306° |
| 2026-05-07 12:39 | 52.06724 | 6.66408 | 22293 ft | 395 kts | 304° |
| 2026-05-07 12:40 | 52.08314 | 6.62744 | 22738 ft | 398 kts | 304° |
| 2026-05-07 12:40 | 52.09922 | 6.59055 | 23168 ft | 401 kts | 304° |
| 2026-05-07 12:40 | 52.11543 | 6.55340 | 23600 ft | 404 kts | 304° |
| 2026-05-07 12:40 | 52.13175 | 6.51599 | 23968 ft | 407 kts | 304° |
| 2026-05-07 12:41 | 52.14816 | 6.47830 | 24344 ft | 409 kts | 304° |
| 2026-05-07 12:41 | 52.16460 | 6.44041 | 24720 ft | 411 kts | 304° |
| 2026-05-07 12:41 | 52.18110 | 6.40221 | 25101 ft | 413 kts | 304° |
| 2026-05-07 12:41 | 52.19766 | 6.36378 | 25464 ft | 415 kts | 304° |
| 2026-05-07 12:42 | 52.21426 | 6.32512 | 25828 ft | 418 kts | 304° |
| 2026-05-07 12:42 | 52.23098 | 6.28624 | 26197 ft | 420 kts | 303° |
| 2026-05-07 12:42 | 52.24610 | 6.24550 | 26546 ft | 421 kts | 295° |
| 2026-05-07 12:42 | 52.25717 | 6.20135 | 26889 ft | 422 kts | 288° |
| 2026-05-07 12:43 | 52.26692 | 6.15609 | 27245 ft | 424 kts | 288° |
| 2026-05-07 12:43 | 52.27676 | 6.11059 | 27581 ft | 426 kts | 288° |
| 2026-05-07 12:43 | 52.28667 | 6.06482 | 27939 ft | 428 kts | 288° |
| 2026-05-07 12:43 | 52.29659 | 6.01881 | 28291 ft | 430 kts | 288° |
| 2026-05-07 12:44 | 52.30653 | 5.97257 | 28641 ft | 432 kts | 288° |
| 2026-05-07 12:44 | 52.31650 | 5.92611 | 28969 ft | 435 kts | 288° |
| 2026-05-07 12:44 | 52.32651 | 5.87937 | 29315 ft | 437 kts | 288° |
| 2026-05-07 12:44 | 52.33656 | 5.83241 | 29644 ft | 439 kts | 288° |
| 2026-05-07 12:45 | 52.34664 | 5.78520 | 29978 ft | 441 kts | 288° |
| 2026-05-07 12:45 | 52.35675 | 5.73780 | 30266 ft | 443 kts | 288° |
| 2026-05-07 12:45 | 52.36687 | 5.69012 | 30503 ft | 444 kts | 288° |
| 2026-05-07 12:45 | 52.37696 | 5.64219 | 30739 ft | 446 kts | 288° |
| 2026-05-07 12:46 | 52.38708 | 5.59412 | 30982 ft | 448 kts | 288° |
| 2026-05-07 12:46 | 52.39725 | 5.54589 | 31223 ft | 449 kts | 288° |
| 2026-05-07 12:46 | 52.40744 | 5.49764 | 31553 ft | 448 kts | 288° |
| 2026-05-07 12:46 | 52.41757 | 5.44951 | 31886 ft | 447 kts | 288° |
| 2026-05-07 12:47 | 52.42765 | 5.40137 | 32203 ft | 446 kts | 288° |
| 2026-05-07 12:47 | 52.43766 | 5.35323 | 32512 ft | 446 kts | 288° |
| 2026-05-07 12:47 | 52.44761 | 5.30517 | 32804 ft | 445 kts | 288° |
| 2026-05-07 12:47 | 52.45755 | 5.25709 | 33098 ft | 445 kts | 288° |
| 2026-05-07 12:48 | 52.46748 | 5.20904 | 33381 ft | 445 kts | 288° |
| 2026-05-07 12:48 | 52.47739 | 5.16092 | 33664 ft | 445 kts | 288° |
| 2026-05-07 12:48 | 52.48728 | 5.11287 | 33942 ft | 445 kts | 288° |
| 2026-05-07 12:48 | 52.49720 | 5.06475 | 34197 ft | 445 kts | 288° |
| 2026-05-07 12:49 | 52.50712 | 5.01673 | 34410 ft | 445 kts | 288° |
| 2026-05-07 12:49 | 52.51704 | 4.96857 | 34637 ft | 445 kts | 288° |
| 2026-05-07 12:49 | 52.52690 | 4.92038 | 34836 ft | 445 kts | 288° |
| 2026-05-07 12:49 | 52.53669 | 4.87214 | 35054 ft | 445 kts | 288° |
| 2026-05-07 12:50 | 52.54660 | 4.82379 | 35266 ft | 446 kts | 289° |
| 2026-05-07 12:50 | 52.55712 | 4.77593 | 35469 ft | 446 kts | 290° |
| 2026-05-07 12:50 | 52.56816 | 4.72822 | 35677 ft | 446 kts | 290° |
| 2026-05-07 12:50 | 52.57939 | 4.68070 | 35878 ft | 446 kts | 290° |
| 2026-05-07 12:51 | 52.59063 | 4.63307 | 36051 ft | 447 kts | 290° |
| 2026-05-07 12:51 | 52.60173 | 4.58549 | 36094 ft | 445 kts | 290° |
| 2026-05-07 12:51 | 52.62346 | 4.49017 | 36099 ft | 444 kts | 290° |
| 2026-05-07 12:52 | 52.64486 | 4.39465 | 36102 ft | 445 kts | 289° |
| 2026-05-07 12:52 | 52.66623 | 4.29901 | 36106 ft | 445 kts | 290° |
| 2026-05-07 12:53 | 52.68770 | 4.20313 | 36107 ft | 446 kts | 290° |
| 2026-05-07 12:53 | 52.70911 | 4.10702 | 36115 ft | 447 kts | 290° |
| 2026-05-07 12:54 | 52.73045 | 4.01057 | 36119 ft | 448 kts | 289° |
| 2026-05-07 12:54 | 52.75176 | 3.91395 | 36116 ft | 449 kts | 289° |
| 2026-05-07 12:55 | 52.77301 | 3.81698 | 36120 ft | 449 kts | 289° |
| 2026-05-07 12:55 | 52.79425 | 3.71981 | 36125 ft | 450 kts | 289° |
| 2026-05-07 12:56 | 52.81545 | 3.62242 | 36119 ft | 451 kts | 289° |
| 2026-05-07 12:56 | 52.83655 | 3.52478 | 36128 ft | 451 kts | 289° |
| 2026-05-07 12:57 | 52.85763 | 3.42703 | 36137 ft | 452 kts | 289° |
| 2026-05-07 12:57 | 52.87863 | 3.32899 | 36132 ft | 452 kts | 289° |
| 2026-05-07 12:58 | 52.89948 | 3.23087 | 36137 ft | 452 kts | 289° |
| 2026-05-07 12:58 | 52.91924 | 3.13206 | 36136 ft | 452 kts | 282° |
| 2026-05-07 12:59 | 52.93273 | 3.03037 | 36141 ft | 452 kts | 282° |
| 2026-05-07 12:59 | 52.94612 | 2.92861 | 36140 ft | 452 kts | 282° |
| 2026-05-07 13:00 | 52.95943 | 2.82676 | 36138 ft | 452 kts | 282° |
| 2026-05-07 13:00 | 52.97264 | 2.72480 | 36136 ft | 452 kts | 282° |
| 2026-05-07 13:01 | 52.98577 | 2.62269 | 36135 ft | 452 kts | 282° |
| 2026-05-07 13:01 | 52.99883 | 2.52057 | 36142 ft | 452 kts | 282° |
| 2026-05-07 13:02 | 53.01181 | 2.41833 | 36139 ft | 453 kts | 282° |
| 2026-05-07 13:02 | 53.02479 | 2.31596 | 36138 ft | 453 kts | 281° |
| 2026-05-07 13:03 | 53.03759 | 2.21357 | 36135 ft | 453 kts | 281° |
| 2026-05-07 13:03 | 53.05027 | 2.11106 | 36135 ft | 453 kts | 281° |
| 2026-05-07 13:04 | 53.06291 | 2.00854 | 36137 ft | 453 kts | 281° |
| 2026-05-07 13:04 | 53.07549 | 1.90586 | 36139 ft | 453 kts | 281° |
| 2026-05-07 13:05 | 53.08798 | 1.80318 | 36135 ft | 453 kts | 281° |
| 2026-05-07 13:05 | 53.10043 | 1.70038 | 36143 ft | 453 kts | 281° |
| 2026-05-07 13:06 | 53.11275 | 1.59755 | 36133 ft | 453 kts | 281° |
| 2026-05-07 13:06 | 53.12488 | 1.49462 | 36131 ft | 453 kts | 281° |
| 2026-05-07 13:07 | 53.13698 | 1.39159 | 36128 ft | 453 kts | 281° |
| 2026-05-07 13:07 | 53.14701 | 1.30592 | 36125 ft | 453 kts | 281° |
| 2026-05-07 13:08 | 53.15897 | 1.20275 | 36123 ft | 454 kts | 280° |
| 2026-05-07 13:08 | 53.17079 | 1.09947 | 36026 ft | 453 kts | 280° |
| 2026-05-07 13:09 | 53.17668 | 1.04792 | 35446 ft | 452 kts | 280° |
| 2026-05-07 13:09 | 53.18256 | 0.99643 | 34807 ft | 453 kts | 281° |
| 2026-05-07 13:09 | 53.18841 | 0.94497 | 34316 ft | 451 kts | 281° |
| 2026-05-07 13:09 | 53.19421 | 0.89369 | 33776 ft | 448 kts | 281° |
| 2026-05-07 13:10 | 53.19995 | 0.84276 | 33243 ft | 445 kts | 281° |
| 2026-05-07 13:10 | 53.20563 | 0.79230 | 32792 ft | 441 kts | 281° |
| 2026-05-07 13:10 | 53.21124 | 0.74222 | 32522 ft | 439 kts | 280° |
| 2026-05-07 13:10 | 53.21680 | 0.69219 | 32254 ft | 438 kts | 280° |
| 2026-05-07 13:11 | 53.22230 | 0.64228 | 31991 ft | 436 kts | 280° |
| 2026-05-07 13:11 | 53.22777 | 0.59263 | 31728 ft | 434 kts | 280° |
| 2026-05-07 13:11 | 53.23320 | 0.54323 | 31463 ft | 432 kts | 280° |
| 2026-05-07 13:11 | 53.23856 | 0.49405 | 31213 ft | 430 kts | 280° |
| 2026-05-07 13:12 | 53.24387 | 0.44511 | 30963 ft | 427 kts | 280° |
| 2026-05-07 13:12 | 53.24912 | 0.39638 | 30707 ft | 425 kts | 280° |
| 2026-05-07 13:12 | 53.25433 | 0.34792 | 30454 ft | 423 kts | 280° |
| 2026-05-07 13:12 | 53.25951 | 0.29967 | 30207 ft | 421 kts | 280° |
| 2026-05-07 13:13 | 53.26470 | 0.25161 | 29930 ft | 419 kts | 280° |
| 2026-05-07 13:13 | 53.26985 | 0.20386 | 29642 ft | 417 kts | 279° |
| 2026-05-07 13:13 | 53.27494 | 0.15623 | 29348 ft | 415 kts | 279° |
| 2026-05-07 13:13 | 53.27994 | 0.10890 | 29101 ft | 412 kts | 279° |
| 2026-05-07 13:14 | 53.29321 | 0.01608 | 29037 ft | 413 kts | 291° |
| 2026-05-07 13:14 | 53.30522 | -0.02740 | 28748 ft | 411 kts | 296° |
| 2026-05-07 13:14 | 53.31788 | -0.07011 | 28467 ft | 409 kts | 296° |
| 2026-05-07 13:15 | 53.33044 | -0.11265 | 28201 ft | 407 kts | 296° |
| 2026-05-07 13:15 | 53.34288 | -0.15507 | 27905 ft | 405 kts | 295° |
| 2026-05-07 13:15 | 53.35520 | -0.19730 | 27453 ft | 402 kts | 295° |
| 2026-05-07 13:15 | 53.36735 | -0.23918 | 27008 ft | 399 kts | 295° |
| 2026-05-07 13:16 | 53.37940 | -0.28086 | 26563 ft | 396 kts | 295° |
| 2026-05-07 13:16 | 53.39136 | -0.32217 | 26124 ft | 393 kts | 295° |
| 2026-05-07 13:16 | 53.40333 | -0.36318 | 25697 ft | 390 kts | 295° |
| 2026-05-07 13:16 | 53.41527 | -0.40387 | 25174 ft | 389 kts | 295° |
| 2026-05-07 13:17 | 53.42730 | -0.44470 | 24542 ft | 391 kts | 295° |
| 2026-05-07 13:17 | 53.43943 | -0.48562 | 23950 ft | 392 kts | 295° |
| 2026-05-07 13:17 | 53.45163 | -0.52651 | 23312 ft | 393 kts | 295° |
| 2026-05-07 13:17 | 53.46386 | -0.56748 | 22624 ft | 393 kts | 295° |
| 2026-05-07 13:18 | 53.47608 | -0.60847 | 21952 ft | 392 kts | 295° |
| 2026-05-07 13:18 | 53.48826 | -0.64943 | 21294 ft | 391 kts | 295° |
| 2026-05-07 13:18 | 53.50037 | -0.69031 | 20647 ft | 390 kts | 295° |
| 2026-05-07 13:18 | 53.51242 | -0.73101 | 20019 ft | 388 kts | 295° |
| 2026-05-07 13:19 | 53.52441 | -0.77157 | 19396 ft | 387 kts | 295° |
| 2026-05-07 13:19 | 53.53636 | -0.81200 | 18789 ft | 385 kts | 295° |
| 2026-05-07 13:19 | 53.54822 | -0.85220 | 18162 ft | 379 kts | 295° |
| 2026-05-07 13:19 | 53.55977 | -0.89130 | 17504 ft | 367 kts | 295° |
| 2026-05-07 13:20 | 53.57095 | -0.92906 | 16920 ft | 355 kts | 295° |
| 2026-05-07 13:20 | 53.58181 | -0.96563 | 16326 ft | 344 kts | 295° |
| 2026-05-07 13:20 | 53.59236 | -1.00106 | 15772 ft | 334 kts | 295° |
| 2026-05-07 13:20 | 53.60267 | -1.03562 | 15216 ft | 326 kts | 295° |
| 2026-05-07 13:21 | 53.61278 | -1.06946 | 14685 ft | 322 kts | 295° |
| 2026-05-07 13:21 | 53.62288 | -1.10319 | 14118 ft | 323 kts | 295° |
| 2026-05-07 13:21 | 53.63287 | -1.13654 | 13531 ft | 324 kts | 295° |
| 2026-05-07 13:21 | 53.64305 | -1.17044 | 12916 ft | 324 kts | 295° |
| 2026-05-07 13:22 | 53.65324 | -1.20436 | 12303 ft | 325 kts | 294° |
| 2026-05-07 13:22 | 53.66347 | -1.23833 | 11715 ft | 325 kts | 295° |
| 2026-05-07 13:22 | 53.67369 | -1.27222 | 11132 ft | 324 kts | 295° |
| 2026-05-07 13:22 | 53.68389 | -1.30598 | 10551 ft | 318 kts | 295° |
| 2026-05-07 13:23 | 53.69372 | -1.33827 | 9993 ft | 301 kts | 295° |
| 2026-05-07 13:23 | 53.70314 | -1.36897 | 9372 ft | 288 kts | 295° |
| 2026-05-07 13:23 | 53.71184 | -1.39866 | 8795 ft | 275 kts | 286° |
| 2026-05-07 13:23 | 53.71514 | -1.42954 | 8521 ft | 264 kts | 266° |
| 2026-05-07 13:24 | 53.71172 | -1.45935 | 8231 ft | 257 kts | 246° |
| 2026-05-07 13:24 | 53.70267 | -1.48494 | 7944 ft | 254 kts | 233° |
| 2026-05-07 13:24 | 53.69246 | -1.50928 | 7663 ft | 253 kts | 234° |
| 2026-05-07 13:24 | 53.68235 | -1.53346 | 7365 ft | 252 kts | 234° |
| 2026-05-07 13:25 | 53.67225 | -1.55762 | 7101 ft | 251 kts | 234° |
| 2026-05-07 13:25 | 53.66221 | -1.58163 | 6890 ft | 250 kts | 234° |
| 2026-05-07 13:25 | 53.65221 | -1.60559 | 6679 ft | 249 kts | 234° |
| 2026-05-07 13:25 | 53.64226 | -1.62944 | 6488 ft | 248 kts | 234° |
| 2026-05-07 13:26 | 53.63232 | -1.65319 | 6280 ft | 248 kts | 234° |
| 2026-05-07 13:26 | 53.62241 | -1.67684 | 6074 ft | 247 kts | 234° |
| 2026-05-07 13:26 | 53.61586 | -1.69245 | 5924 ft | 246 kts | 234° |
| 2026-05-07 13:26 | 53.60602 | -1.71589 | 5720 ft | 245 kts | 234° |
| 2026-05-07 13:27 | 53.59617 | -1.73923 | 5516 ft | 243 kts | 234° |
| 2026-05-07 13:27 | 53.58638 | -1.76248 | 5328 ft | 244 kts | 234° |
| 2026-05-07 13:27 | 53.57660 | -1.78570 | 5152 ft | 242 kts | 234° |
| 2026-05-07 13:27 | 53.56687 | -1.80881 | 5037 ft | 242 kts | 234° |
| 2026-05-07 13:28 | 53.55716 | -1.83181 | 4998 ft | 241 kts | 233° |
| 2026-05-07 13:28 | 53.54740 | -1.85494 | 4997 ft | 242 kts | 233° |
| 2026-05-07 13:28 | 53.53762 | -1.87808 | 4876 ft | 246 kts | 233° |
| 2026-05-07 13:28 | 53.52771 | -1.90150 | 4604 ft | 244 kts | 233° |
| 2026-05-07 13:29 | 53.51820 | -1.92394 | 4469 ft | 227 kts | 233° |
| 2026-05-07 13:29 | 53.50939 | -1.94474 | 4371 ft | 210 kts | 232° |
| 2026-05-07 13:29 | 53.50107 | -1.96438 | 4298 ft | 203 kts | 232° |
| 2026-05-07 13:29 | 53.49291 | -1.98354 | 4196 ft | 199 kts | 232° |
| 2026-05-07 13:30 | 53.48483 | -2.00154 | 4110 ft | 188 kts | 230° |
| 2026-05-07 13:30 | 53.47690 | -2.01842 | 3937 ft | 182 kts | 229° |
| 2026-05-07 13:30 | 53.46910 | -2.03480 | 3693 ft | 177 kts | 229° |
| 2026-05-07 13:30 | 53.46156 | -2.05060 | 3471 ft | 171 kts | 228° |
| 2026-05-07 13:31 | 53.45426 | -2.06586 | 3248 ft | 166 kts | 227° |
| 2026-05-07 13:31 | 53.44706 | -2.08088 | 3028 ft | 165 kts | 228° |
| 2026-05-07 13:31 | 53.43992 | -2.09577 | 2830 ft | 164 kts | 227° |
| 2026-05-07 13:31 | 53.43285 | -2.11053 | 2584 ft | 157 kts | 227° |
| 2026-05-07 13:32 | 53.42621 | -2.12439 | 2374 ft | 147 kts | 226° |
| 2026-05-07 13:32 | 53.42005 | -2.13726 | 2155 ft | 137 kts | 227° |
| 2026-05-07 13:32 | 53.41403 | -2.14969 | 1987 ft | 139 kts | 226° |
| 2026-05-07 13:32 | 53.40801 | -2.16214 | 1816 ft | 137 kts | 227° |
| 2026-05-07 13:33 | 53.40213 | -2.17453 | 1597 ft | 137 kts | 227° |
| 2026-05-07 13:33 | 53.39624 | -2.18706 | 1432 ft | 137 kts | 228° |
| 2026-05-07 13:33 | 53.39040 | -2.19956 | 1230 ft | 137 kts | 227° |
| 2026-05-07 13:33 | 53.38438 | -2.21181 | 1026 ft | 136 kts | 226° |
| 2026-05-07 13:34 | 53.37842 | -2.22424 | 814 ft | 137 kts | 228° |
| 2026-05-07 13:34 | 53.36630 | -2.24905 | 425 ft | 135 kts | 228° |
| 2026-05-07 13:34 | 53.36045 | -2.26114 | 266 ft | 132 kts | 228° |
| 2026-05-07 13:35 | 53.35546 | -2.27137 | 242 ft | 90 kts | 232° |
| 2026-05-07 13:35 | 53.35291 | -2.27688 | 240 ft | 34 kts | 243° |
| 2026-05-07 13:35 | 53.35246 | -2.27995 | 233 ft | 17 kts | 262° |
| 2026-05-07 13:35 | 53.35233 | -2.28125 | 229 ft | 0 kts | 260° |
| 2026-05-07 13:37 | 53.35232 | -2.28136 | 229 ft | 4 kts | 261° |
| 2026-05-07 13:37 | 53.35235 | -2.28196 | 229 ft | 3 kts | 285° |
| 2026-05-07 13:37 | 53.35237 | -2.28201 | 229 ft | 0 kts | 292° |
| 2026-05-07 13:37 | 53.35250 | -2.28221 | 230 ft | 5 kts | 325° |
| 2026-05-07 13:38 | 53.35297 | -2.28216 | 229 ft | 8 kts | 22° |
| 2026-05-07 13:38 | 53.35349 | -2.28180 | 231 ft | 9 kts | 22° |
| 2026-05-07 13:38 | 53.35416 | -2.28161 | 232 ft | 11 kts | 5° |
| 2026-05-07 13:38 | 53.35494 | -2.28125 | 235 ft | 12 kts | 24° |
| 2026-05-07 13:39 | 53.35558 | -2.28034 | 235 ft | 12 kts | 49° |
| 2026-05-07 13:39 | 53.35614 | -2.27923 | 235 ft | 13 kts | 47° |
| 2026-05-07 13:39 | 53.35709 | -2.27881 | 233 ft | 16 kts | 6° |
| 2026-05-07 13:39 | 53.35819 | -2.27860 | 238 ft | 14 kts | 4° |
| 2026-05-07 13:40 | 53.35892 | -2.27849 | 237 ft | 10 kts | 5° |
| 2026-05-07 13:40 | 53.35957 | -2.27839 | 239 ft | 10 kts | 6° |
| 2026-05-07 13:40 | 53.36033 | -2.27834 | 240 ft | 11 kts | 350° |
| 2026-05-07 13:40 | 53.36097 | -2.27902 | 241 ft | 11 kts | 316° |
| 2026-05-07 13:41 | 53.36152 | -2.27997 | 242 ft | 12 kts | 315° |
| 2026-05-07 13:41 | 53.36217 | -2.28102 | 242 ft | 14 kts | 314° |
| 2026-05-07 13:41 | 53.36276 | -2.28204 | 240 ft | 10 kts | 314° |
| 2026-05-07 13:41 | 53.36329 | -2.28293 | 241 ft | 10 kts | 315° |
| 2026-05-07 13:42 | 53.36372 | -2.28366 | 234 ft | 2 kts | 315° |
| 2026-05-07 13:42 | 53.36392 | -2.28400 | 233 ft | 6 kts | 314° |
| 2026-05-07 13:42 | 53.36437 | -2.28476 | 231 ft | 12 kts | 315° |
| 2026-05-07 13:42 | 53.36502 | -2.28587 | 228 ft | 15 kts | 314° |
| 2026-05-07 13:43 | 53.36556 | -2.28680 | 228 ft | 8 kts | 306° |
| 2026-05-07 13:43 | 53.36575 | -2.28746 | 228 ft | 5 kts | 295° |
| 2026-05-07 13:43 | 53.36601 | -2.28778 | 228 ft | 5 kts | 336° |
| 2026-05-07 13:43 | 53.36638 | -2.28759 | 229 ft | 8 kts | 38° |
| 2026-05-07 13:44 | 53.36680 | -2.28691 | 228 ft | 7 kts | 45° |
| 2026-05-07 13:44 | 53.36690 | -2.28675 | 229 ft | 0 kts | 46° |
| 2026-05-07 13:45 | 53.36693 | -2.28666 | 229 ft | 4 kts | 60° |
| 2026-05-07 13:45 | 53.36709 | -2.28647 | 229 ft | 1 kts | 352° |
| 2026-05-07 13:45 | 53.36712 | -2.28655 | 229 ft | 1 kts | 312° |
| 2026-05-07 13:46 | 53.36712 | -2.28675 | 229 ft | 5 kts | 275° |
| 2026-05-07 13:46 | 53.36693 | -2.28706 | 229 ft | 5 kts | 205° |
| 2026-05-07 13:46 | 53.36637 | -2.28765 | 230 ft | 13 kts | 227° |
| 2026-05-07 13:46 | 53.36640 | -2.28891 | 228 ft | 13 kts | 334° |
| 2026-05-07 13:47 | 53.36713 | -2.28989 | 229 ft | 15 kts | 315° |
| 2026-05-07 13:47 | 53.36805 | -2.29022 | 230 ft | 15 kts | 23° |
| 2026-05-07 13:47 | 53.36884 | -2.28909 | 229 ft | 14 kts | 45° |
| 2026-05-07 13:47 | 53.36910 | -2.28828 | 229 ft | 11 kts | 103° |
| 2026-05-07 13:48 | 53.36894 | -2.28799 | 230 ft | 1 kts | 132° |
| 2026-05-07 13:48 | 53.36892 | -2.28794 | 229 ft | 0 kts | 133° |
| 2026-05-07 13:52 | 53.36892 | -2.28795 | 229 ft | 0 kts | 133° |